createdAt,value
2019-02-10T14:22:24.232Z,78.96
2019-02-10T14:24:53.712Z,78.29
2019-02-10T14:27:23.192Z,77.63
2019-02-10T14:29:53.281Z,76.07
2019-02-10T14:32:22.623Z,74.78
2019-02-10T14:34:51.972Z,75.36
2019-02-10T14:37:21.306Z,74.86
2019-02-10T14:39:50.692Z,74.18
2019-02-10T14:42:20.051Z,73.80
2019-02-10T14:44:49.384Z,74.66
2019-02-10T14:47:18.851Z,75.70
2019-02-10T14:49:48.293Z,76.79
2019-02-10T14:52:17.587Z,77.60
2019-02-10T14:54:46.945Z,76.02
2019-02-10T14:57:16.348Z,77.72
2019-02-10T14:59:45.753Z,77.26
2019-02-10T15:02:15.076Z,77.19
2019-02-10T15:04:44.443Z,77.42
2019-02-10T15:07:14.087Z,77.32
2019-02-10T15:09:43.515Z,77.64
2019-02-10T15:12:13.012Z,78.01
2019-02-10T15:14:42.432Z,77.60
2019-02-10T15:17:11.803Z,77.23
2019-02-10T15:19:41.159Z,77.59
2019-02-10T15:22:10.447Z,77.29
2019-02-10T15:24:39.812Z,76.95
2019-02-10T15:27:09.231Z,75.38
2019-02-10T15:29:38.970Z,75.54
2019-02-10T15:32:16.469Z,74.29
2019-02-10T15:34:37.856Z,74.56
2019-02-10T15:37:07.188Z,73.11
2019-02-10T15:39:36.604Z,73.28
2019-02-10T15:42:09.430Z,73.66
2019-02-10T15:44:36.547Z,73.60
2019-02-10T15:47:05.967Z,73.62
2019-02-10T15:49:36.071Z,74.11
2019-02-10T15:52:05.465Z,73.63
2019-02-10T15:54:34.792Z,73.66
2019-02-10T15:57:04.149Z,73.07
2019-02-10T15:59:33.440Z,74.12
2019-02-10T16:02:02.804Z,73.45
2019-02-10T16:04:32.228Z,74.04
2019-02-10T16:07:01.623Z,74.34
2019-02-10T16:09:31.055Z,73.87
2019-02-10T16:12:00.284Z,73.45
2019-02-10T16:14:31.173Z,73.56
2019-02-10T16:17:00.622Z,72.27
2019-02-10T16:19:30.205Z,73.40
2019-02-10T16:21:59.556Z,72.49
2019-02-10T16:24:28.902Z,72.21
2019-02-10T16:26:58.268Z,72.19
2019-02-10T16:29:27.691Z,72.47
2019-02-10T16:31:57.139Z,71.76
2019-02-10T16:34:27.166Z,72.18
2019-02-10T16:36:56.512Z,72.07
2019-02-10T16:39:26.526Z,72.60
2019-02-10T16:41:55.841Z,72.65
2019-02-10T16:44:25.210Z,73.35
2019-02-10T16:46:54.513Z,73.80
2019-02-10T16:49:24.077Z,74.06
2019-02-10T16:51:53.408Z,74.63
2019-02-10T16:54:22.740Z,74.25
2019-02-10T16:56:52.171Z,74.08
2019-02-10T16:59:21.600Z,74.33
2019-02-10T17:01:50.923Z,74.30
2019-02-10T17:04:20.191Z,74.64
2019-02-10T17:06:49.605Z,74.70
2019-02-10T17:09:18.940Z,73.57
2019-02-10T17:11:50.031Z,73.12
2019-02-10T17:14:19.280Z,74.43
2019-02-10T17:16:48.720Z,74.85
2019-02-10T17:19:17.995Z,75.34
2019-02-10T17:21:47.301Z,75.94
2019-02-10T17:24:16.603Z,76.38
2019-02-10T17:26:45.935Z,77.09
2019-02-10T17:29:15.247Z,77.17
2019-02-10T17:31:45.212Z,76.98
2019-02-10T17:34:14.544Z,76.78
2019-02-10T17:36:43.940Z,78.61
2019-02-10T17:39:18.783Z,79.29
2019-02-10T17:41:49.228Z,81.45
2019-02-10T17:44:18.612Z,81.76
2019-02-10T17:46:47.988Z,82.21
2019-02-10T17:49:17.340Z,81.22
2019-02-10T17:51:46.668Z,81.66
2019-02-10T17:54:15.984Z,81.09
2019-02-10T17:56:45.355Z,79.44
2019-02-10T17:59:14.700Z,78.50
2019-02-10T18:01:44.942Z,77.95
2019-02-10T18:04:14.392Z,76.80
2019-02-10T18:06:43.743Z,76.12
2019-02-10T18:09:13.060Z,75.39
2019-02-10T18:11:42.347Z,75.92
2019-02-10T18:14:16.735Z,74.80
2019-02-10T18:16:51.051Z,73.82
2019-02-10T18:19:28.414Z,73.41
2019-02-10T18:22:33.191Z,73.13
2019-02-10T18:25:32.968Z,72.37
2019-02-10T18:28:06.611Z,72.74
2019-02-10T18:30:43.004Z,72.56
2019-02-10T18:33:17.673Z,72.38
2019-02-10T18:35:59.187Z,72.26
2019-02-10T18:38:34.838Z,71.34
2019-02-10T18:41:13.255Z,70.12
2019-02-10T18:43:47.855Z,70.51
2019-02-10T18:46:24.261Z,71.30
2019-02-10T18:49:12.820Z,70.48
2019-02-10T18:51:47.272Z,70.55
2019-02-10T18:55:20.436Z,70.27
2019-02-10T18:57:55.896Z,70.91
2019-02-10T19:00:38.039Z,70.38
2019-02-10T19:03:25.776Z,70.02
2019-02-10T19:06:02.045Z,70.98
2019-02-10T19:08:43.464Z,69.73
2019-02-10T19:11:17.627Z,69.54
2019-02-10T19:13:51.056Z,69.96
2019-02-10T19:16:25.436Z,70.75
2019-02-10T19:19:06.100Z,70.65
2019-02-10T19:21:40.390Z,70.45
2019-02-10T19:24:30.016Z,70.54
2019-02-10T19:27:05.430Z,71.31
2019-02-10T19:29:41.868Z,71.20
2019-02-10T19:32:21.039Z,70.61
2019-02-10T19:37:03.565Z,71.12
2019-02-10T19:39:50.211Z,70.02
2019-02-10T19:42:34.785Z,70.92
2019-02-10T19:45:12.297Z,70.56
2019-02-10T19:47:47.332Z,70.29
2019-02-10T19:50:21.847Z,71.22
2019-02-10T19:53:00.224Z,71.27
2019-02-10T19:55:40.898Z,71.27
2019-02-10T19:58:15.236Z,71.42
2019-02-10T20:00:49.683Z,71.38
2019-02-10T20:03:24.088Z,71.32
2019-02-10T20:06:18.563Z,71.46
2019-02-10T20:09:11.163Z,71.90
2019-02-10T20:11:46.431Z,72.03
2019-02-10T20:14:21.253Z,71.60
2019-02-10T20:17:27.486Z,71.24
2019-02-10T20:22:06.091Z,71.64
2019-02-10T20:24:41.575Z,71.36
2019-02-10T20:27:16.008Z,71.79
2019-02-10T20:29:50.501Z,72.02
2019-02-10T20:32:23.943Z,71.12
2019-02-10T20:35:15.554Z,70.49
2019-02-10T20:38:47.668Z,70.54
2019-02-10T20:41:21.215Z,70.25
2019-02-10T20:43:59.512Z,70.33
2019-02-10T20:46:49.233Z,70.20
2019-02-10T20:50:22.544Z,70.37
2019-02-10T20:53:01.952Z,70.27
2019-02-10T20:55:36.312Z,69.91
2019-02-10T20:58:09.711Z,70.25
2019-02-10T21:00:48.302Z,69.82
2019-02-10T21:03:22.744Z,69.92
2019-02-10T21:06:00.887Z,69.36
2019-02-10T21:08:34.367Z,70.13
2019-02-10T21:11:13.597Z,68.98
2019-02-10T21:13:48.849Z,69.36
2019-02-10T21:16:28.273Z,68.96
2019-02-10T21:19:04.603Z,69.09
2019-02-10T21:21:39.035Z,68.38
2019-02-10T21:24:16.565Z,68.41
2019-02-10T21:26:52.912Z,68.01
2019-02-10T21:29:26.303Z,68.26
2019-02-10T21:32:03.664Z,68.14
2019-02-10T21:34:55.020Z,68.64
2019-02-10T21:37:33.288Z,68.16
2019-02-10T21:40:09.145Z,67.92
2019-02-10T21:42:43.692Z,67.75
2019-02-10T21:46:18.750Z,67.83
2019-02-10T21:48:54.187Z,67.66
2019-02-10T21:51:23.755Z,67.64
2019-02-10T21:53:53.103Z,67.87
2019-02-10T21:56:22.448Z,67.90
2019-02-10T21:58:52.794Z,67.41
2019-02-10T22:01:22.092Z,67.36
2019-02-10T22:03:51.482Z,67.45
2019-02-10T22:06:20.773Z,67.03
2019-02-10T22:08:50.230Z,67.06
2019-02-10T22:11:19.548Z,66.54
2019-02-10T22:13:48.940Z,66.86
2019-02-10T22:16:18.319Z,66.47
2019-02-10T22:18:54.356Z,65.57
2019-02-10T22:21:24.649Z,66.15
2019-02-10T22:23:54.654Z,65.62
2019-02-10T22:26:23.977Z,65.95
2019-02-10T22:28:53.447Z,65.35
2019-02-10T22:31:26.167Z,65.59
2019-02-10T22:33:55.535Z,64.66
2019-02-10T22:36:25.695Z,64.99
2019-02-10T22:38:55.732Z,64.77
2019-02-10T22:41:25.080Z,64.44
2019-02-10T22:43:54.616Z,64.60
2019-02-10T22:46:23.965Z,64.79
2019-02-10T22:48:54.040Z,64.53
2019-02-10T22:51:24.015Z,64.71
2019-02-10T22:53:54.331Z,65.18
2019-02-10T22:56:23.647Z,64.87
2019-02-10T22:58:52.982Z,65.13
2019-02-10T23:01:22.367Z,65.39
2019-02-10T23:03:52.343Z,65.58
2019-02-10T23:06:21.671Z,64.69
2019-02-10T23:08:51.131Z,65.02
2019-02-10T23:11:21.157Z,64.79
2019-02-10T23:13:50.508Z,64.83
2019-02-10T23:16:19.894Z,64.87
2019-02-10T23:18:49.239Z,64.87
2019-02-10T23:21:25.172Z,64.46
2019-02-10T23:23:54.482Z,64.62
2019-02-10T23:26:24.807Z,64.20
2019-02-10T23:28:54.692Z,64.90
2019-02-10T23:31:24.127Z,64.90
2019-02-10T23:33:53.475Z,64.33
2019-02-10T23:36:22.784Z,64.06
2019-02-10T23:38:52.147Z,64.20
2019-02-10T23:41:21.488Z,63.51
2019-02-10T23:43:50.837Z,63.66
2019-02-10T23:46:20.173Z,63.40
2019-02-10T23:48:49.579Z,63.72
2019-02-10T23:51:18.871Z,63.51
2019-02-10T23:53:48.273Z,64.01
2019-02-10T23:56:17.656Z,64.00
2019-02-10T23:58:47.013Z,64.16
